Time;durP1;ratioP1;P1;durP2;ratioP2;P2;SDS_P1;SDS_P2;PMS_P1;PMS_P2;Temp;Humidity;BMP_temperature;BMP_pressure;BME280_temperature;BME280_humidity;BME280_pressure;Samples;Min_cycle;Max_cycle;Signal;HPM_P1;HPM_P2
2023/03/13 00:01:39;;;;;;;4.45;2.10;;;15.80;54.30;;;;;;5052547;28;20214;-55
2023/03/13 00:04:04;;;;;;;7.43;2.20;;;15.80;54.30;;;;;;5052913;28;20534;-57
2023/03/13 00:06:32;;;;;;;5.40;2.33;;;15.70;54.30;;;;;;5053368;28;20171;-57
2023/03/13 00:08:59;;;;;;;5.47;2.08;;;15.70;54.30;;;;;;5052387;28;20180;-56
2023/03/13 00:11:24;;;;;;;4.50;2.10;;;15.70;54.30;;;;;;5053303;28;20190;-54
2023/03/13 00:13:56;;;;;;;4.47;2.08;;;15.70;54.30;;;;;;5052363;28;20647;-55
2023/03/13 00:16:21;;;;;;;5.10;2.30;;;15.70;54.30;;;;;;5053169;28;20333;-56
2023/03/13 00:18:48;;;;;;;5.07;2.25;;;15.70;54.30;;;;;;5052576;28;20256;-53
2023/03/13 00:21:14;;;;;;;4.70;2.00;;;15.70;54.30;;;;;;5052261;28;20248;-54
2023/03/13 00:23:40;;;;;;;4.75;2.35;;;15.60;54.20;;;;;;5053261;28;20258;-56
2023/03/13 00:26:10;;;;;;;4.13;1.83;;;15.70;54.30;;;;;;5052800;28;20181;-55
2023/03/13 00:28:36;;;;;;;4.43;2.40;;;15.60;54.30;;;;;;5052252;28;20179;-51
2023/03/13 00:31:07;;;;;;;5.63;2.30;;;15.60;54.30;;;;;;5052643;28;20184;-55
2023/03/13 00:33:33;;;;;;;4.60;2.00;;;15.70;54.30;;;;;;5053100;28;20262;-53
2023/03/13 00:36:03;;;;;;;6.43;2.38;;;15.60;54.20;;;;;;5051969;28;20179;-55
2023/03/13 00:38:29;;;;;;;4.63;2.22;;;15.60;54.30;;;;;;5052916;28;20179;-54
2023/03/13 00:41:05;;;;;;;4.88;2.35;;;15.60;54.30;;;;;;5052430;28;20324;-55
2023/03/13 00:43:31;;;;;;;5.32;2.75;;;15.60;54.30;;;;;;5052393;28;20265;-56
2023/03/13 00:45:56;;;;;;;6.03;2.30;;;15.60;54.30;;;;;;5052578;28;20266;-56
2023/03/13 00:48:22;;;;;;;4.65;2.25;;;15.60;54.30;;;;;;5052793;28;20175;-56
2023/03/13 00:50:48;;;;;;;3.38;2.10;;;15.60;54.30;;;;;;5051773;28;20552;-54
2023/03/13 00:53:13;;;;;;;4.60;2.25;;;15.60;54.30;;;;;;5052827;28;20175;-54
2023/03/13 00:55:40;;;;;;;8.65;2.42;;;15.60;54.30;;;;;;5052908;28;20531;-53
2023/03/13 00:58:06;;;;;;;4.22;2.22;;;15.60;54.30;;;;;;5050345;28;20206;-55
2023/03/13 01:00:31;;;;;;;4.63;2.28;;;15.60;54.30;;;;;;5052502;28;20628;-56
2023/03/13 01:02:57;;;;;;;5.60;2.00;;;15.50;54.30;;;;;;5052263;28;20590;-56
2023/03/13 01:05:22;;;;;;;6.25;2.20;;;15.50;54.30;;;;;;5051851;28;20218;-57
2023/03/13 01:07:49;;;;;;;4.90;2.00;;;15.50;54.30;;;;;;5052290;28;20270;-54
2023/03/13 01:10:15;;;;;;;5.40;2.10;;;15.50;54.30;;;;;;5055330;28;20206;-51
2023/03/13 01:12:41;;;;;;;5.00;2.03;;;15.50;54.30;;;;;;5056469;28;20203;-57
2023/03/13 01:15:07;;;;;;;3.40;2.15;;;15.50;54.40;;;;;;5056325;28;20178;-54
2023/03/13 01:17:32;;;;;;;5.07;2.05;;;15.50;54.40;;;;;;5055685;28;20285;-56
2023/03/13 01:19:58;;;;;;;4.07;1.85;;;15.50;54.40;;;;;;5056036;28;20709;-56
2023/03/13 01:22:23;;;;;;;3.85;1.88;;;15.50;54.40;;;;;;5056532;28;20271;-54
2023/03/13 01:24:51;;;;;;;3.45;2.53;;;15.40;54.30;;;;;;5055398;28;20168;-56
2023/03/13 01:27:17;;;;;;;4.57;2.60;;;15.50;54.40;;;;;;5056208;28;20625;-57
2023/03/13 01:29:42;;;;;;;4.18;2.35;;;15.40;54.40;;;;;;5056128;28;20179;-55
2023/03/13 01:32:08;;;;;;;6.22;2.25;;;15.40;54.50;;;;;;5055589;28;20172;-56
2023/03/13 01:34:34;;;;;;;3.75;2.20;;;15.50;54.50;;;;;;5056283;28;20216;-53
2023/03/13 01:36:59;;;;;;;4.30;2.67;;;15.40;54.50;;;;;;5054747;28;20290;-56
2023/03/13 01:39:25;;;;;;;4.70;2.30;;;15.40;54.50;;;;;;5055319;28;20167;-51
2023/03/13 01:41:50;;;;;;;5.75;2.42;;;15.40;54.50;;;;;;5055602;28;20210;-53
2023/03/13 01:44:24;;;;;;;4.97;2.22;;;15.40;54.50;;;;;;5056118;28;20172;-57
2023/03/13 01:46:49;;;;;;;5.32;2.40;;;15.40;54.50;;;;;;5055039;28;20179;-56
2023/03/13 01:49:20;;;;;;;4.63;2.15;;;15.40;54.50;;;;;;5056003;28;20171;-55
2023/03/13 01:51:52;;;;;;;3.88;1.95;;;15.40;54.50;;;;;;5055621;28;20228;-55
2023/03/13 01:54:27;;;;;;;5.80;2.05;;;15.40;54.50;;;;;;5053830;28;20230;-56
2023/03/13 01:57:17;;;;;;;3.22;1.80;;;15.40;54.60;;;;;;5055337;28;20300;-57
2023/03/13 01:59:53;;;;;;;3.97;2.05;;;15.40;54.60;;;;;;5053462;28;20177;-57
2023/03/13 02:02:18;;;;;;;5.63;2.30;;;15.40;54.60;;;;;;5054537;28;20175;-54
2023/03/13 02:04:46;;;;;;;4.03;1.95;;;15.40;54.60;;;;;;5054076;28;20595;-54
2023/03/13 02:07:15;;;;;;;4.88;2.13;;;15.40;54.80;;;;;;5053864;28;20179;-56
2023/03/13 02:09:41;;;;;;;4.90;2.17;;;15.40;54.60;;;;;;5055314;28;20533;-56
2023/03/13 02:12:09;;;;;;;4.45;2.47;;;15.30;54.60;;;;;;5054508;28;20171;-54
2023/03/13 02:14:37;;;;;;;3.15;1.92;;;15.30;54.60;;;;;;5053466;28;20171;-56
2023/03/13 02:17:03;;;;;;;4.65;2.25;;;15.40;54.70;;;;;;5053866;28;20187;-56
2023/03/13 02:19:52;;;;;;;4.72;2.13;;;15.30;54.60;;;;;;5055079;28;20285;-55
2023/03/13 02:22:30;;;;;;;5.15;2.03;;;15.30;54.60;;;;;;5054292;28;20190;-55
2023/03/13 02:24:59;;;;;;;5.82;2.42;;;15.30;54.70;;;;;;5053817;28;20206;-54
2023/03/13 02:27:24;;;;;;;4.85;2.10;;;15.30;54.80;;;;;;5054632;28;20254;-55
2023/03/13 02:29:50;;;;;;;4.53;2.28;;;15.30;54.80;;;;;;5054842;28;20577;-55
2023/03/13 02:32:16;;;;;;;4.28;2.08;;;15.30;54.80;;;;;;5054946;28;20596;-56
2023/03/13 02:34:41;;;;;;;4.40;2.00;;;15.30;54.80;;;;;;5054219;28;20171;-58
2023/03/13 02:37:09;;;;;;;3.28;1.83;;;15.30;54.80;;;;;;5053835;28;20540;-56
2023/03/13 02:39:35;;;;;;;5.57;1.98;;;15.30;54.80;;;;;;5053889;28;20171;-55
2023/03/13 02:42:00;;;;;;;4.03;2.00;;;15.30;54.80;;;;;;5052695;28;20256;-55
2023/03/13 02:44:26;;;;;;;3.72;1.70;;;15.20;54.80;;;;;;5053891;28;20175;-55
2023/03/13 02:46:52;;;;;;;3.30;2.10;;;15.30;54.90;;;;;;5054782;28;20508;-58
2023/03/13 02:49:30;;;;;;;4.50;1.90;;;15.30;55.00;;;;;;5054319;28;20536;-57
2023/03/13 02:51:58;;;;;;;4.55;1.73;;;15.20;54.90;;;;;;5054355;28;20194;-56
2023/03/13 02:54:34;;;;;;;3.38;1.98;;;15.20;55.00;;;;;;5054625;28;20182;-54
2023/03/13 02:57:01;;;;;;;3.38;1.77;;;15.30;55.10;;;;;;5035863;28;20568;-57
2023/03/13 02:59:26;;;;;;;4.68;1.80;;;15.30;55.10;;;;;;5037060;28;20183;-57
2023/03/13 03:01:52;;;;;;;3.95;1.92;;;15.20;55.10;;;;;;5054315;28;20560;-57
2023/03/13 03:04:24;;;;;;;3.90;2.03;;;15.30;55.10;;;;;;5053810;28;20622;-56
2023/03/13 03:06:50;;;;;;;2.72;1.67;;;15.30;55.20;;;;;;5054223;28;20233;-55
2023/03/13 03:09:16;;;;;;;2.95;1.67;;;15.20;55.10;;;;;;5054493;28;20175;-54
2023/03/13 03:11:41;;;;;;;3.25;1.67;;;15.20;55.20;;;;;;5053833;28;20202;-56
2023/03/13 03:14:07;;;;;;;3.60;1.85;;;15.20;55.20;;;;;;5054460;28;20506;-55
2023/03/13 03:16:33;;;;;;;2.63;1.70;;;15.20;55.20;;;;;;5053030;28;20585;-55
2023/03/13 03:18:59;;;;;;;3.92;2.08;;;15.20;55.30;;;;;;5052789;28;20352;-54
2023/03/13 03:21:24;;;;;;;3.47;1.90;;;15.20;55.30;;;;;;5053790;28;20294;-55
2023/03/13 03:23:50;;;;;;;3.75;1.90;;;15.20;55.30;;;;;;5052980;28;20198;-56
2023/03/13 03:26:15;;;;;;;3.33;1.95;;;15.20;55.40;;;;;;5054135;28;20551;-53
2023/03/13 03:28:41;;;;;;;3.72;1.60;;;15.20;55.40;;;;;;5054113;28;20641;-55
2023/03/13 03:31:08;;;;;;;4.57;1.92;;;15.20;55.40;;;;;;5053310;28;20182;-54
2023/03/13 03:33:34;;;;;;;4.93;2.00;;;15.20;55.50;;;;;;5053778;28;20211;-53
2023/03/13 03:36:00;;;;;;;3.15;1.75;;;15.10;55.50;;;;;;5053577;28;20199;-56
2023/03/13 03:38:26;;;;;;;3.22;1.55;;;15.20;55.50;;;;;;5053044;28;20544;-55
2023/03/13 03:40:52;;;;;;;3.42;1.83;;;15.10;55.50;;;;;;5053555;28;20206;-54
2023/03/13 03:43:17;;;;;;;3.17;1.50;;;15.20;55.60;;;;;;5053859;28;20182;-54
2023/03/13 03:45:43;;;;;;;3.40;1.90;;;15.20;55.50;;;;;;5052787;28;20171;-56
2023/03/13 03:48:08;;;;;;;5.65;1.83;;;15.10;55.50;;;;;;5053664;28;20200;-55
2023/03/13 03:50:34;;;;;;;1.88;1.40;;;15.20;55.70;;;;;;5053508;28;20571;-55
2023/03/13 03:52:59;;;;;;;4.22;2.00;;;15.10;55.70;;;;;;5052546;28;20618;-56
2023/03/13 03:55:25;;;;;;;2.53;1.55;;;15.20;55.70;;;;;;5053330;28;20634;-55
2023/03/13 03:57:50;;;;;;;4.82;2.10;;;15.10;55.70;;;;;;5053139;28;20182;-56
2023/03/13 04:00:18;;;;;;;4.82;1.90;;;15.10;55.70;;;;;;5052767;28;20218;-57
2023/03/13 04:02:43;;;;;;;2.78;1.70;;;15.10;55.70;;;;;;5053120;28;20199;-57
2023/03/13 04:05:09;;;;;;;2.90;1.92;;;15.20;55.80;;;;;;5053320;28;20262;-57
2023/03/13 04:07:35;;;;;;;3.40;1.60;;;15.10;55.80;;;;;;5052556;28;20167;-57
2023/03/13 04:10:01;;;;;;;3.35;1.52;;;15.10;55.90;;;;;;5053115;28;20182;-53
2023/03/13 04:12:26;;;;;;;3.55;1.60;;;15.10;55.90;;;;;;5053311;28;20538;-56
2023/03/13 04:14:52;;;;;;;3.22;1.55;;;15.10;55.80;;;;;;5052284;28;20656;-56
2023/03/13 04:17:17;;;;;;;1.88;1.40;;;15.10;56.00;;;;;;5053249;28;20538;-56
2023/03/13 04:19:43;;;;;;;2.97;1.58;;;15.10;56.00;;;;;;5052543;28;20250;-55
2023/03/13 04:22:08;;;;;;;3.60;1.80;;;15.10;56.00;;;;;;5052159;28;20183;-55
2023/03/13 04:24:34;;;;;;;2.75;1.75;;;15.10;56.10;;;;;;5053589;28;20187;-55
2023/03/13 04:27:01;;;;;;;3.72;1.58;;;15.10;56.10;;;;;;5052302;28;20187;-55
2023/03/13 04:29:26;;;;;;;2.47;1.83;;;15.10;56.10;;;;;;5053105;28;20176;-56
2023/03/13 04:31:52;;;;;;;2.17;1.38;;;15.10;56.10;;;;;;5052679;28;20171;-56
2023/03/13 04:34:18;;;;;;;1.60;1.13;;;15.10;56.10;;;;;;5052258;28;20179;-55
2023/03/13 04:36:43;;;;;;;2.40;1.45;;;15.10;56.10;;;;;;5052554;28;20268;-56
2023/03/13 04:39:09;;;;;;;2.17;1.63;;;15.10;56.10;;;;;;5052822;28;20175;-56
2023/03/13 04:41:34;;;;;;;2.63;1.75;;;15.10;56.10;;;;;;5051997;28;20250;-57
2023/03/13 04:44:00;;;;;;;1.73;1.38;;;15.10;56.20;;;;;;5052140;28;20220;-57
2023/03/13 04:46:25;;;;;;;2.13;1.25;;;15.10;56.10;;;;;;5052931;28;20210;-56
2023/03/13 04:48:51;;;;;;;2.10;1.30;;;15.10;56.30;;;;;;5051765;28;20657;-55
2023/03/13 04:51:16;;;;;;;2.22;1.50;;;15.10;56.30;;;;;;5052565;28;20250;-56
2023/03/13 04:53:42;;;;;;;1.80;1.20;;;15.10;56.40;;;;;;5052796;28;20179;-55
2023/03/13 04:56:10;;;;;;;2.95;1.65;;;15.00;56.40;;;;;;5052230;28;20198;-55
2023/03/13 04:58:35;;;;;;;2.15;1.50;;;15.10;56.30;;;;;;5035469;28;20167;-55
2023/03/13 05:01:01;;;;;;;3.25;1.45;;;15.10;56.30;;;;;;5052434;28;20754;-57
2023/03/13 05:03:26;;;;;;;2.65;1.40;;;15.10;56.30;;;;;;5051843;28;20175;-56
2023/03/13 05:05:52;;;;;;;2.45;1.63;;;15.10;56.40;;;;;;5052176;28;20269;-57
2023/03/13 05:08:17;;;;;;;1.08;0.98;;;15.00;56.40;;;;;;5052780;28;20199;-54
2023/03/13 05:10:43;;;;;;;1.60;1.33;;;15.10;56.30;;;;;;5051796;28;20211;-54
2023/03/13 05:13:08;;;;;;;2.25;1.10;;;15.00;56.40;;;;;;5052639;28;20210;-52
2023/03/13 05:15:34;;;;;;;2.72;1.27;;;15.10;56.40;;;;;;5052728;28;20179;-53
2023/03/13 05:18:00;;;;;;;1.63;1.20;;;15.00;56.50;;;;;;5051230;28;20223;-53
2023/03/13 05:20:25;;;;;;;2.20;1.40;;;15.00;56.50;;;;;;5052274;28;20211;-57
2023/03/13 05:22:51;;;;;;;1.50;1.27;;;15.00;56.40;;;;;;5052124;28;20178;-54
2023/03/13 05:25:16;;;;;;;1.65;1.30;;;15.10;56.60;;;;;;5051803;28;20271;-53
2023/03/13 05:27:42;;;;;;;2.70;1.40;;;15.00;56.60;;;;;;5052223;28;20202;-55
2023/03/13 05:30:08;;;;;;;1.67;1.20;;;15.10;56.60;;;;;;5052381;28;20181;-55
2023/03/13 05:32:34;;;;;;;2.90;1.10;;;15.00;56.50;;;;;;5051622;28;20221;-54
2023/03/13 05:34:59;;;;;;;2.65;1.30;;;15.10;56.60;;;;;;5051962;28;20175;-55
2023/03/13 05:37:25;;;;;;;2.20;1.10;;;15.00;56.50;;;;;;5051742;28;20175;-56
2023/03/13 05:39:50;;;;;;;1.52;1.08;;;15.00;56.50;;;;;;5052137;28;20579;-56
2023/03/13 05:42:16;;;;;;;1.50;1.40;;;15.00;56.50;;;;;;5052304;28;20580;-57
2023/03/13 05:44:41;;;;;;;1.67;1.35;;;15.00;56.50;;;;;;5051567;28;21017;-57
2023/03/13 05:47:07;;;;;;;2.38;1.42;;;15.00;56.60;;;;;;5052239;28;20199;-57
2023/03/13 05:49:32;;;;;;;2.70;1.58;;;15.00;56.60;;;;;;5052069;28;20222;-54
2023/03/13 05:51:58;;;;;;;2.97;1.52;;;15.00;56.60;;;;;;5051363;28;20572;-57
2023/03/13 05:54:23;;;;;;;1.42;1.33;;;15.00;56.60;;;;;;5052004;28;20645;-56
2023/03/13 05:56:49;;;;;;;1.90;1.42;;;15.00;56.60;;;;;;5054234;28;20171;-57
2023/03/13 05:59:15;;;;;;;1.95;1.20;;;15.00;56.60;;;;;;5054985;28;20182;-53
2023/03/13 06:01:40;;;;;;;1.70;1.05;;;15.00;56.50;;;;;;5055463;28;20211;-57
2023/03/13 06:04:06;;;;;;;2.78;1.38;;;15.00;56.60;;;;;;5055275;28;20182;-56
2023/03/13 06:06:31;;;;;;;2.78;1.35;;;15.10;56.70;;;;;;5054730;28;20659;-56
2023/03/13 06:08:57;;;;;;;1.65;1.23;;;15.10;56.50;;;;;;5055281;28;20171;-56
2023/03/13 06:11:22;;;;;;;2.03;1.20;;;15.20;56.90;;;;;;5055554;28;20186;-56
2023/03/13 06:13:49;;;;;;;1.38;1.20;;;15.30;57.00;;;;;;5054395;28;20171;-56
2023/03/13 06:16:15;;;;;;;2.00;1.30;;;15.30;57.50;;;;;;5054246;28;20175;-56
2023/03/13 06:18:40;;;;;;;1.35;1.13;;;15.40;56.80;;;;;;5055018;28;20214;-57
2023/03/13 06:21:06;;;;;;;1.23;1.10;;;15.50;56.60;;;;;;5054369;28;20207;-56
2023/03/13 06:23:32;;;;;;;1.23;1.13;;;15.60;56.60;;;;;;5055459;28;20168;-56
2023/03/13 06:25:57;;;;;;;2.80;1.00;;;15.70;56.40;;;;;;5054976;28;20703;-56
2023/03/13 06:28:23;;;;;;;1.90;1.17;;;15.70;56.90;;;;;;5054533;28;20210;-55
2023/03/13 06:30:48;;;;;;;1.88;1.13;;;15.80;56.20;;;;;;5054804;28;20197;-56
2023/03/13 06:33:14;;;;;;;2.08;1.10;;;15.90;56.00;;;;;;5054982;28;20178;-56
2023/03/13 06:35:40;;;;;;;1.63;1.25;;;15.90;55.90;;;;;;5054261;28;20179;-55
2023/03/13 06:38:06;;;;;;;1.58;0.90;;;16.00;55.80;;;;;;5054868;28;20210;-55
2023/03/13 06:40:31;;;;;;;2.10;0.80;;;16.00;55.70;;;;;;5054975;28;20222;-57
2023/03/13 06:42:57;;;;;;;1.58;1.10;;;16.10;56.10;;;;;;5053922;28;20207;-57
2023/03/13 06:45:23;;;;;;;1.52;1.10;;;16.10;55.60;;;;;;5054827;28;20198;-56
2023/03/13 06:47:50;;;;;;;1.52;1.10;;;16.20;55.60;;;;;;5053529;28;20702;-56
2023/03/13 06:50:16;;;;;;;1.95;1.10;;;16.20;55.50;;;;;;5055000;28;20308;-56
2023/03/13 06:52:41;;;;;;;2.53;1.20;;;16.20;55.40;;;;;;5054730;28;20195;-56
2023/03/13 06:55:07;;;;;;;1.20;1.10;;;16.20;55.40;;;;;;5054083;28;20215;-56
2023/03/13 06:57:33;;;;;;;2.10;1.30;;;16.20;55.40;;;;;;5054825;28;20605;-55
2023/03/13 06:59:58;;;;;;;2.00;1.10;;;16.20;55.40;;;;;;5054281;28;20186;-60
2023/03/13 07:02:24;;;;;;;1.30;1.00;;;16.20;55.60;;;;;;5053826;28;20300;-56
2023/03/13 07:04:50;;;;;;;1.30;1.00;;;16.20;55.60;;;;;;5054375;28;20254;-57
2023/03/13 07:07:15;;;;;;;1.38;1.17;;;16.20;55.50;;;;;;5054014;28;20641;-55
2023/03/13 07:09:41;;;;;;;1.67;0.95;;;16.30;55.50;;;;;;5053785;28;20250;-55
2023/03/13 07:12:06;;;;;;;0.80;0.80;;;16.50;55.40;;;;;;5054548;28;20195;-55
2023/03/13 07:14:32;;;;;;;1.55;0.95;;;16.60;55.20;;;;;;5054251;28;20179;-56
2023/03/13 07:16:58;;;;;;;1.40;1.00;;;16.90;55.50;;;;;;5053142;28;20519;-58
2023/03/13 07:19:23;;;;;;;1.42;0.70;;;17.10;54.30;;;;;;5053880;28;20258;-57
2023/03/13 07:21:51;;;;;;;1.85;0.90;;;17.20;54.00;;;;;;5053874;28;20260;-56
2023/03/13 07:24:16;;;;;;;1.48;0.80;;;17.40;53.80;;;;;;5053337;28;20172;-57
2023/03/13 07:26:42;;;;;;;2.30;1.05;;;17.50;53.60;;;;;;5053736;28;20185;-53
2023/03/13 07:29:07;;;;;;;1.55;1.05;;;17.60;53.90;;;;;;5054068;28;20240;-53
2023/03/13 07:31:34;;;;;;;2.13;1.40;;;17.70;53.20;;;;;;5053099;28;20171;-53
2023/03/13 07:33:59;;;;;;;1.30;0.98;;;17.70;53.10;;;;;;5053861;28;20207;-58
2023/03/13 07:36:25;;;;;;;2.30;0.88;;;17.70;53.00;;;;;;5054106;28;20194;-54
2023/03/13 07:38:51;;;;;;;2.08;1.08;;;17.80;53.00;;;;;;5053046;28;20684;-55
2023/03/13 07:41:17;;;;;;;1.35;1.00;;;17.80;52.90;;;;;;5053800;28;20215;-57
2023/03/13 07:43:42;;;;;;;1.35;0.80;;;17.80;53.00;;;;;;5053458;28;20175;-55
2023/03/13 07:46:10;;;;;;;2.00;1.23;;;17.80;53.00;;;;;;5052819;28;20699;-57
2023/03/13 07:48:37;;;;;;;1.88;0.82;;;17.80;53.10;;;;;;5052633;28;20254;-56
2023/03/13 07:51:09;;;;;;;1.92;1.13;;;17.70;53.10;;;;;;5052746;28;20203;-52
2023/03/13 07:53:34;;;;;;;1.70;1.25;;;17.70;53.10;;;;;;5052468;28;20190;-52
2023/03/13 07:56:02;;;;;;;1.50;0.90;;;17.70;53.20;;;;;;5053261;28;20539;-54
2023/03/13 07:58:30;;;;;;;1.50;0.90;;;17.70;53.30;;;;;;5052861;28;20258;-56
2023/03/13 08:00:55;;;;;;;1.63;0.82;;;17.60;53.40;;;;;;5052961;28;20289;-56
2023/03/13 08:03:22;;;;;;;1.85;1.20;;;17.40;53.60;;;;;;5053492;28;20250;-57
2023/03/13 08:05:47;;;;;;;1.70;1.23;;;17.40;53.80;;;;;;5052546;28;20212;-56
2023/03/13 08:08:13;;;;;;;1.30;0.93;;;17.40;53.90;;;;;;5051863;28;20613;-55
2023/03/13 08:10:39;;;;;;;1.23;1.00;;;17.40;54.00;;;;;;5053222;28;20233;-56
2023/03/13 08:13:04;;;;;;;0.70;0.70;;;17.30;53.90;;;;;;5052248;28;20182;-53
2023/03/13 08:15:30;;;;;;;1.10;1.00;;;17.30;54.00;;;;;;5052682;28;20662;-54
2023/03/13 08:17:55;;;;;;;1.58;1.13;;;17.30;54.10;;;;;;5052225;28;20222;-52
2023/03/13 08:20:21;;;;;;;1.90;1.02;;;17.30;54.80;;;;;;5051796;28;20195;-65
2023/03/13 08:22:46;;;;;;;4.47;1.02;;;17.30;54.30;;;;;;5052491;28;20179;-66
2023/03/13 08:25:13;;;;;;;3.08;1.42;;;17.30;54.50;;;;;;5052148;28;20202;-66
2023/03/13 08:27:38;;;;;;;3.05;1.08;;;17.20;54.50;;;;;;5051855;28;20179;-65
2023/03/13 08:30:04;;;;;;;1.70;1.33;;;17.10;54.70;;;;;;5052323;28;20194;-66
2023/03/13 08:32:33;;;;;;;3.30;0.90;;;17.10;55.20;;;;;;5052752;28;20201;-67
2023/03/13 08:34:59;;;;;;;1.85;1.27;;;17.10;55.90;;;;;;5051703;28;20167;-66
2023/03/13 08:37:24;;;;;;;4.30;1.25;;;17.10;55.40;;;;;;5052641;28;20190;-66
2023/03/13 08:39:50;;;;;;;3.42;1.85;;;17.00;55.50;;;;;;5052435;28;20171;-65
2023/03/13 08:42:15;;;;;;;1.98;0.80;;;17.00;55.60;;;;;;5051745;28;20218;-64
2023/03/13 08:44:41;;;;;;;3.88;1.23;;;16.90;55.80;;;;;;5052593;28;20634;-65
2023/03/13 08:47:07;;;;;;;1.85;1.08;;;16.80;55.90;;;;;;5052906;28;20171;-65
2023/03/13 08:49:32;;;;;;;4.25;1.40;;;16.80;56.10;;;;;;5051876;28;20177;-65
2023/03/13 08:51:58;;;;;;;2.08;1.30;;;16.70;56.20;;;;;;5052315;28;20187;-65
2023/03/13 08:54:23;;;;;;;3.15;1.90;;;16.70;56.30;;;;;;5052297;28;20183;-66
2023/03/13 08:56:49;;;;;;;1.58;1.17;;;16.60;56.40;;;;;;5052534;28;20171;-66
2023/03/13 08:59:14;;;;;;;1.90;1.10;;;16.60;56.50;;;;;;5052466;28;20175;-66
2023/03/13 09:01:40;;;;;;;2.90;1.55;;;16.60;56.60;;;;;;5051834;28;20211;-66
2023/03/13 09:04:06;;;;;;;1.65;1.10;;;16.50;56.60;;;;;;5052458;28;20171;-65
2023/03/13 09:06:32;;;;;;;1.63;1.30;;;16.60;56.70;;;;;;5052670;28;20176;-66
2023/03/13 09:08:58;;;;;;;1.90;1.35;;;16.50;56.70;;;;;;5051588;28;20167;-64
2023/03/13 09:11:23;;;;;;;2.80;1.67;;;16.50;56.80;;;;;;5052146;28;20185;-65
2023/03/13 09:13:49;;;;;;;1.52;1.13;;;16.50;56.80;;;;;;5051683;28;20171;-65
2023/03/13 09:16:16;;;;;;;1.70;1.20;;;16.50;56.90;;;;;;5051513;28;20182;-65
2023/03/13 09:18:42;;;;;;;1.83;1.15;;;16.50;56.90;;;;;;5051900;28;20234;-64
2023/03/13 09:21:10;;;;;;;3.25;1.20;;;16.60;56.70;;;;;;5052127;28;20298;-64
2023/03/13 09:23:36;;;;;;;2.05;1.40;;;16.60;56.90;;;;;;5050478;28;20171;-65
2023/03/13 09:26:01;;;;;;;3.65;1.40;;;16.50;56.90;;;;;;5051917;28;20236;-66
2023/03/13 09:28:27;;;;;;;1.33;1.10;;;16.50;57.10;;;;;;5051974;28;20175;-66
2023/03/13 09:30:52;;;;;;;4.00;1.30;;;16.40;57.10;;;;;;5053977;28;20233;-65
2023/03/13 09:33:18;;;;;;;1.52;1.08;;;16.40;57.20;;;;;;5056143;28;20186;-66
2023/03/13 09:35:49;;;;;;;3.78;1.60;;;16.40;57.30;;;;;;5055739;28;20233;-66
2023/03/13 09:38:21;;;;;;;2.08;1.50;;;16.40;57.30;;;;;;5055306;28;20186;-65
2023/03/13 09:40:48;;;;;;;1.55;1.10;;;16.40;57.30;;;;;;5055343;28;20214;-64
2023/03/13 09:43:35;;;;;;;2.72;1.40;;;16.40;57.30;;;;;;5055785;28;20186;-65
2023/03/13 09:46:02;;;;;;;3.38;1.33;;;16.40;57.30;;;;;;5055547;28;20213;-64
2023/03/13 09:48:32;;;;;;;2.05;1.33;;;16.50;57.20;;;;;;5054537;28;20186;-65
2023/03/13 09:51:14;;;;;;;1.90;1.15;;;16.50;56.90;;;;;;5053465;28;20171;-64
2023/03/13 09:53:55;;;;;;;2.95;1.45;;;16.50;57.10;;;;;;5054453;28;20243;-65
2023/03/13 09:56:29;;;;;;;2.50;1.23;;;16.50;57.10;;;;;;5054561;28;20284;-66
2023/03/13 09:58:58;;;;;;;2.78;1.35;;;16.50;57.10;;;;;;5037248;28;20187;-66
2023/03/13 10:01:27;;;;;;;2.22;1.20;;;16.40;57.30;;;;;;5037785;28;20250;-66
2023/03/13 10:04:17;;;;;;;3.65;1.25;;;16.40;57.20;;;;;;5037766;28;20194;-65
2023/03/13 10:06:43;;;;;;;2.47;1.23;;;16.40;57.30;;;;;;5054486;28;20198;-66
2023/03/13 10:09:20;;;;;;;2.85;1.50;;;16.40;57.30;;;;;;5037460;28;20623;-65
2023/03/13 10:12:11;;;;;;;2.60;1.33;;;16.40;57.30;;;;;;5053122;28;20228;-66
2023/03/13 10:14:43;;;;;;;3.25;1.45;;;16.40;57.30;;;;;;5054457;28;20221;-66
2023/03/13 10:17:27;;;;;;;2.00;1.45;;;16.40;57.30;;;;;;5054087;28;20222;-64
2023/03/13 10:19:58;;;;;;;2.47;1.35;;;16.40;57.30;;;;;;5054025;28;20302;-65
2023/03/13 10:22:25;;;;;;;4.00;1.35;;;16.40;57.30;;;;;;5053905;28;20193;-65
2023/03/13 10:24:58;;;;;;;2.25;1.20;;;16.30;57.30;;;;;;5054743;28;20232;-65
2023/03/13 10:27:24;;;;;;;2.35;1.38;;;16.40;57.30;;;;;;5053462;28;20171;-65
2023/03/13 10:29:49;;;;;;;1.95;1.20;;;16.40;57.30;;;;;;5054618;28;20184;-66
2023/03/13 10:32:15;;;;;;;3.05;1.40;;;16.40;57.90;;;;;;5054995;28;20167;-65
2023/03/13 10:34:57;;;;;;;2.17;1.20;;;16.40;57.30;;;;;;5054138;28;20211;-66
2023/03/13 10:37:30;;;;;;;1.58;1.10;;;16.40;57.30;;;;;;5054758;28;20266;-65
2023/03/13 10:40:24;;;;;;;2.47;1.23;;;16.40;57.30;;;;;;5053846;28;20331;-65
2023/03/13 10:42:50;;;;;;;2.67;1.30;;;16.40;57.30;;;;;;5053808;28;20187;-65
2023/03/13 10:45:17;;;;;;;3.75;1.58;;;16.40;57.30;;;;;;5053601;28;20633;-64
2023/03/13 10:47:43;;;;;;;2.30;1.40;;;16.40;57.30;;;;;;5052460;28;20175;-65
2023/03/13 10:50:19;;;;;;;1.33;1.10;;;16.40;57.30;;;;;;5054793;28;20198;-64
2023/03/13 10:52:48;;;;;;;2.60;1.75;;;16.40;57.30;;;;;;5053092;28;20182;-66
2023/03/13 10:55:32;;;;;;;2.78;1.30;;;16.40;57.30;;;;;;5053812;28;20179;-66
2023/03/13 10:58:02;;;;;;;1.92;1.17;;;16.40;57.30;;;;;;5053928;28;20637;-66
2023/03/13 11:00:37;;;;;;;3.10;1.10;;;16.40;57.30;;;;;;5054533;28;20203;-65
2023/03/13 11:03:16;;;;;;;1.95;1.00;;;16.40;57.30;;;;;;5051047;28;20665;-65
2023/03/13 11:05:45;;;;;;;3.05;1.20;;;16.40;57.50;;;;;;5036489;28;20181;-66
2023/03/13 11:08:18;;;;;;;3.35;1.02;;;16.40;58.10;;;;;;5051576;28;20175;-66
2023/03/13 11:11:04;;;;;;;3.75;1.30;;;16.40;57.60;;;;;;5053263;28;20189;-65
2023/03/13 11:13:41;;;;;;;1.95;1.60;;;16.40;57.60;;;;;;5057593;28;20211;-67
2023/03/13 11:16:26;;;;;;;3.42;1.58;;;16.50;57.60;;;;;;5052368;28;20167;-66
2023/03/13 11:19:22;;;;;;;2.63;1.10;;;16.50;57.70;;;;;;5049020;28;20332;-64
2023/03/13 11:21:52;;;;;;;2.72;1.40;;;16.50;57.60;;;;;;5052077;28;20232;-64
2023/03/13 11:24:48;;;;;;;3.30;1.30;;;16.60;57.60;;;;;;5054617;28;20170;-64
2023/03/13 11:28:01;;;;;;;3.63;1.35;;;16.60;57.60;;;;;;5051799;28;20183;-64
2023/03/13 11:30:41;;;;;;;3.15;1.25;;;16.60;57.60;;;;;;5027366;28;20171;-65
2023/03/13 11:33:23;;;;;;;2.55;1.33;;;16.60;57.40;;;;;;5029769;28;20218;-63
2023/03/13 11:35:57;;;;;;;2.05;1.35;;;16.60;57.40;;;;;;5031729;28;20179;-64
2023/03/13 11:38:35;;;;;;;1.52;1.05;;;16.70;57.40;;;;;;5032824;28;20557;-64
2023/03/13 11:41:11;;;;;;;2.42;1.30;;;16.60;57.30;;;;;;5067625;28;20653;-64
2023/03/13 11:43:39;;;;;;;2.25;1.23;;;16.70;57.10;;;;;;5070908;28;20220;-63
2023/03/13 11:46:04;;;;;;;2.10;1.38;;;16.70;57.20;;;;;;5073032;28;20201;-64
2023/03/13 11:48:43;;;;;;;3.05;1.25;;;16.70;57.30;;;;;;5055874;28;20179;-64
2023/03/13 11:51:19;;;;;;;1.83;1.25;;;16.80;57.10;;;;;;5051091;28;20244;-63
2023/03/13 11:54:12;;;;;;;2.78;1.33;;;16.90;56.80;;;;;;5051272;28;20206;-64
2023/03/13 11:56:57;;;;;;;2.25;1.23;;;17.00;56.70;;;;;;5052712;28;20201;-66
2023/03/13 11:59:48;;;;;;;2.75;1.38;;;17.10;56.60;;;;;;5050934;28;20614;-66
2023/03/13 12:02:30;;;;;;;2.13;1.40;;;17.10;56.50;;;;;;5052635;28;20215;-66
2023/03/13 12:05:00;;;;;;;3.78;1.65;;;17.10;56.50;;;;;;5035025;28;20186;-65
2023/03/13 12:07:47;;;;;;;3.05;1.42;;;17.10;56.60;;;;;;5051472;28;20221;-65
2023/03/13 12:10:15;;;;;;;1.55;1.20;;;17.20;56.70;;;;;;5051180;28;20278;-64
2023/03/13 12:13:03;;;;;;;1.92;1.10;;;17.20;56.50;;;;;;5050641;28;20253;-66
2023/03/13 12:15:36;;;;;;;3.13;1.20;;;17.30;56.50;;;;;;5051581;28;20259;-65
2023/03/13 12:18:24;;;;;;;1.80;1.35;;;17.20;56.50;;;;;;5050655;28;20238;-63
2023/03/13 12:20:57;;;;;;;1.42;1.20;;;17.20;56.50;;;;;;5050987;28;20206;-63
2023/03/13 12:23:58;;;;;;;2.30;1.02;;;17.20;56.50;;;;;;5034860;28;20206;-64
2023/03/13 12:26:46;;;;;;;2.47;1.13;;;17.20;56.60;;;;;;5051815;28;20613;-64
2023/03/13 12:29:42;;;;;;;1.73;1.40;;;17.20;56.70;;;;;;5037514;28;20167;-64
2023/03/13 12:32:23;;;;;;;1.25;0.90;;;17.20;56.60;;;;;;5052237;28;20262;-64
2023/03/13 12:35:15;;;;;;;1.17;1.08;;;17.10;56.80;;;;;;5050873;28;20233;-65
2023/03/13 12:37:49;;;;;;;1.65;1.10;;;17.10;56.90;;;;;;5043954;28;20273;-65
2023/03/13 12:40:34;;;;;;;1.90;1.15;;;17.10;57.00;;;;;;5050094;28;20179;-65
2023/03/13 12:43:22;;;;;;;1.25;0.95;;;17.00;57.10;;;;;;5034402;28;20182;-65
2023/03/13 12:45:56;;;;;;;2.80;1.23;;;17.10;56.90;;;;;;5034572;28;20183;-65
2023/03/13 12:48:48;;;;;;;3.08;1.40;;;17.10;56.80;;;;;;5051657;28;20301;-65
2023/03/13 12:51:41;;;;;;;1.63;1.10;;;17.20;56.70;;;;;;5048972;28;20645;-65
2023/03/13 12:54:12;;;;;;;2.13;1.30;;;17.20;56.70;;;;;;5051297;28;20664;-65
2023/03/13 12:57:13;;;;;;;1.42;1.10;;;17.30;56.50;;;;;;5051954;28;20174;-65
2023/03/13 13:00:05;;;;;;;1.65;1.20;;;17.40;56.50;;;;;;5051247;28;20177;-67